sensor_id;sensor_type;location;lat;lon;timestamp;pressure;altitude;pressure_sealevel;temperature;humidity
5350;BME280;2697;42.144;24.794;2022-08-19T00:00:29;158815.09;;;24.11;66.75
5350;BME280;2697;42.144;24.794;2022-08-19T00:02:54;158768.56;;;23.94;68.14
5350;BME280;2697;42.144;24.794;2022-08-19T00:05:21;158735.28;;;23.81;68.75
5350;BME280;2697;42.144;24.794;2022-08-19T00:07:47;158732.63;;;23.80;68.84
5350;BME280;2697;42.144;24.794;2022-08-19T00:10:15;158760.53;;;23.91;68.35
5350;BME280;2697;42.144;24.794;2022-08-19T00:12:41;158739.25;;;23.82;68.79
5350;BME280;2697;42.144;24.794;2022-08-19T00:15:09;158714.00;;;23.73;69.61
5350;BME280;2697;42.144;24.794;2022-08-19T00:17:40;158679.44;;;23.59;70.28
5350;BME280;2697;42.144;24.794;2022-08-19T00:20:07;158623.59;;;23.38;72.94
5350;BME280;2697;42.144;24.794;2022-08-19T00:22:33;158583.69;;;23.23;72.85
5350;BME280;2697;42.144;24.794;2022-08-19T00:24:58;158592.97;;;23.26;73.36
5350;BME280;2697;42.144;24.794;2022-08-19T00:27:24;158585.03;;;23.23;73.54
5350;BME280;2697;42.144;24.794;2022-08-19T00:29:49;158602.31;;;23.30;73.49
5350;BME280;2697;42.144;24.794;2022-08-19T00:32:16;158618.28;;;23.36;72.22
5350;BME280;2697;42.144;24.794;2022-08-19T00:34:42;158628.88;;;23.40;72.71
5350;BME280;2697;42.144;24.794;2022-08-19T00:37:09;158631.53;;;23.41;72.41
5350;BME280;2697;42.144;24.794;2022-08-19T00:39:35;158663.44;;;23.53;72.05
5350;BME280;2697;42.144;24.794;2022-08-19T00:42:00;158635.53;;;23.43;72.82
5350;BME280;2697;42.144;24.794;2022-08-19T00:44:28;158635.53;;;23.43;73.35
5350;BME280;2697;42.144;24.794;2022-08-19T00:46:55;158628.88;;;23.40;73.40
5350;BME280;2697;42.144;24.794;2022-08-19T00:51:49;158655.47;;;23.50;72.76
5350;BME280;2697;42.144;24.794;2022-08-19T00:54:15;158666.09;;;23.54;72.57
5350;BME280;2697;42.144;24.794;2022-08-19T00:56:41;158683.44;;;23.61;71.89
5350;BME280;2697;42.144;24.794;2022-08-19T00:59:07;158706.03;;;23.70;71.38
5350;BME280;2697;42.144;24.794;2022-08-19T01:01:38;158702.06;;;23.68;71.38
5350;BME280;2697;42.144;24.794;2022-08-19T01:04:04;158702.06;;;23.68;71.63
5350;BME280;2697;42.144;24.794;2022-08-19T01:06:31;158724.66;;;23.77;71.50
5350;BME280;2697;42.144;24.794;2022-08-19T01:08:58;158679.44;;;23.59;73.20
5350;BME280;2697;42.144;24.794;2022-08-19T01:11:23;158644.88;;;23.46;73.92
5350;BME280;2697;42.144;24.794;2022-08-19T01:13:50;158654.16;;;23.50;73.58
5350;BME280;2697;42.144;24.794;2022-08-19T01:16:19;158655.47;;;23.50;73.23
5350;BME280;2697;42.144;24.794;2022-08-19T01:18:45;158671.44;;;23.56;73.08
5350;BME280;2697;42.144;24.794;2022-08-19T01:21:39;158602.31;;;23.30;73.94
5350;BME280;2697;42.144;24.794;2022-08-19T01:24:05;158618.28;;;23.36;73.67
5350;BME280;2697;42.144;24.794;2022-08-19T01:26:31;158638.19;;;23.44;72.88
5350;BME280;2697;42.144;24.794;2022-08-19T01:28:58;158644.88;;;23.46;72.82
5350;BME280;2697;42.144;24.794;2022-08-19T01:31:26;158655.47;;;23.50;72.54
5350;BME280;2697;42.144;24.794;2022-08-19T01:33:56;158671.44;;;23.56;72.56
5350;BME280;2697;42.144;24.794;2022-08-19T01:36:34;158687.41;;;23.63;72.26
5350;BME280;2697;42.144;24.794;2022-08-19T01:39:03;158642.22;;;23.45;72.97
5350;BME280;2697;42.144;24.794;2022-08-19T01:41:29;158644.88;;;23.46;73.28
5350;BME280;2697;42.144;24.794;2022-08-19T01:43:55;158628.88;;;23.40;73.26
5350;BME280;2697;42.144;24.794;2022-08-19T01:46:21;158506.63;;;22.93;75.60
5350;BME280;2697;42.144;24.794;2022-08-19T01:48:47;158464.03;;;22.77;76.91
5350;BME280;2697;42.144;24.794;2022-08-19T01:51:13;158402.97;;;22.54;77.57
5350;BME280;2697;42.144;24.794;2022-08-19T01:53:39;158394.94;;;22.51;78.29
5350;BME280;2697;42.144;24.794;2022-08-19T01:56:05;158328.56;;;22.25;79.86
5350;BME280;2697;42.144;24.794;2022-08-19T01:58:36;158286.06;;;22.09;80.44
5350;BME280;2697;42.144;24.794;2022-08-19T02:01:04;158278.06;;;22.06;81.56
5350;BME280;2697;42.144;24.794;2022-08-19T02:03:30;158266.09;;;22.01;81.57
5350;BME280;2697;42.144;24.794;2022-08-19T02:05:59;158331.22;;;22.26;80.05
5350;BME280;2697;42.144;24.794;2022-08-19T02:08:29;158345.81;;;22.32;79.26
5350;BME280;2697;42.144;24.794;2022-08-19T02:10:56;158309.97;;;22.18;80.53
5350;BME280;2697;42.144;24.794;2022-08-19T02:13:22;158286.06;;;22.09;80.90
5350;BME280;2697;42.144;24.794;2022-08-19T02:15:48;158295.34;;;22.12;80.49
5350;BME280;2697;42.144;24.794;2022-08-19T02:18:14;158306.00;;;22.16;80.17
5350;BME280;2697;42.144;24.794;2022-08-19T02:20:41;158304.66;;;22.16;79.91
5350;BME280;2697;42.144;24.794;2022-08-19T02:23:08;158312.63;;;22.19;80.07
5350;BME280;2697;42.144;24.794;2022-08-19T02:25:34;158339.19;;;22.29;79.78
5350;BME280;2697;42.144;24.794;2022-08-19T02:28:00;158355.13;;;22.35;79.59
5350;BME280;2697;42.144;24.794;2022-08-19T02:30:25;158352.47;;;22.34;80.30
5350;BME280;2697;42.144;24.794;2022-08-19T02:32:51;158365.75;;;22.39;79.77
5350;BME280;2697;42.144;24.794;2022-08-19T02:35:17;158376.41;;;22.43;79.28
5350;BME280;2697;42.144;24.794;2022-08-19T02:37:43;158379.03;;;22.44;79.16
5350;BME280;2697;42.144;24.794;2022-08-19T02:40:29;158390.97;;;22.49;78.57
5350;BME280;2697;42.144;24.794;2022-08-19T02:42:55;158398.94;;;22.52;78.25
5350;BME280;2697;42.144;24.794;2022-08-19T02:45:20;158394.94;;;22.51;77.58
5350;BME280;2697;42.144;24.794;2022-08-19T02:47:46;158412.25;;;22.57;77.92
5350;BME280;2697;42.144;24.794;2022-08-19T02:50:12;158433.50;;;22.65;77.54
5350;BME280;2697;42.144;24.794;2022-08-19T02:52:38;158436.16;;;22.66;77.35
5350;BME280;2697;42.144;24.794;2022-08-19T02:55:04;158436.16;;;22.66;76.89
5350;BME280;2697;42.144;24.794;2022-08-19T02:57:30;158456.09;;;22.74;75.89
5350;BME280;2697;42.144;24.794;2022-08-19T02:59:57;158498.66;;;22.90;75.54
5350;BME280;2697;42.144;24.794;2022-08-19T03:02:22;158485.34;;;22.85;75.63
5350;BME280;2697;42.144;24.794;2022-08-19T03:04:48;158511.94;;;22.95;74.93
5350;BME280;2697;42.144;24.794;2022-08-19T03:07:15;158514.59;;;22.96;74.74
5350;BME280;2697;42.144;24.794;2022-08-19T03:09:41;158533.19;;;23.03;73.49
5350;BME280;2697;42.144;24.794;2022-08-19T03:12:09;158539.84;;;23.06;73.42
5350;BME280;2697;42.144;24.794;2022-08-19T03:14:35;158562.44;;;23.15;72.48
5350;BME280;2697;42.144;24.794;2022-08-19T03:17:01;158565.06;;;23.16;72.59
5350;BME280;2697;42.144;24.794;2022-08-19T03:19:26;158559.78;;;23.14;73.19
5350;BME280;2697;42.144;24.794;2022-08-19T03:21:53;158581.03;;;23.22;72.73
5350;BME280;2697;42.144;24.794;2022-08-19T03:24:19;158583.69;;;23.23;72.21
5350;BME280;2697;42.144;24.794;2022-08-19T03:26:53;158594.34;;;23.27;72.65
5350;BME280;2697;42.144;24.794;2022-08-19T03:29:23;158557.13;;;23.13;72.86
5350;BME280;2697;42.144;24.794;2022-08-19T03:31:48;158579.72;;;23.21;72.43
5350;BME280;2697;42.144;24.794;2022-08-19T03:34:29;158599.66;;;23.29;72.23
5350;BME280;2697;42.144;24.794;2022-08-19T03:36:56;158582.38;;;23.22;72.77
5350;BME280;2697;42.144;24.794;2022-08-19T03:39:23;158565.06;;;23.16;72.36
5350;BME280;2697;42.144;24.794;2022-08-19T03:41:50;158599.66;;;23.29;71.41
5350;BME280;2697;42.144;24.794;2022-08-19T03:44:19;158632.88;;;23.42;70.22
5350;BME280;2697;42.144;24.794;2022-08-19T03:46:48;158642.22;;;23.45;70.05
5350;BME280;2697;42.144;24.794;2022-08-19T03:49:14;158583.69;;;23.23;73.12
5350;BME280;2697;42.144;24.794;2022-08-19T03:51:40;158590.31;;;23.25;72.83
5350;BME280;2697;42.144;24.794;2022-08-19T03:54:09;158563.75;;;23.15;74.03
5350;BME280;2697;42.144;24.794;2022-08-19T03:56:36;158668.78;;;23.55;72.76
5350;BME280;2697;42.144;24.794;2022-08-19T03:59:03;158759.22;;;23.90;71.12
5350;BME280;2697;42.144;24.794;2022-08-19T04:01:28;158763.19;;;23.92;69.15
5350;BME280;2697;42.144;24.794;2022-08-19T04:03:58;158704.72;;;23.69;69.55
5350;BME280;2697;42.144;24.794;2022-08-19T04:06:28;158687.41;;;23.63;70.29
5350;BME280;2697;42.144;24.794;2022-08-19T04:08:56;158775.19;;;23.96;69.84
5350;BME280;2697;42.144;24.794;2022-08-19T04:11:26;158714.00;;;23.73;71.62
5350;BME280;2697;42.144;24.794;2022-08-19T04:13:53;158635.53;;;23.43;71.89
5350;BME280;2697;42.144;24.794;2022-08-19T04:16:25;158632.88;;;23.42;71.66
5350;BME280;2697;42.144;24.794;2022-08-19T04:18:54;158586.34;;;23.24;72.51
5350;BME280;2697;42.144;24.794;2022-08-19T04:21:22;158764.56;;;23.92;68.69
5350;BME280;2697;42.144;24.794;2022-08-19T04:23:48;158797.78;;;24.05;68.15
5350;BME280;2697;42.144;24.794;2022-08-19T04:26:15;158945.47;;;24.61;66.96
5350;BME280;2697;42.144;24.794;2022-08-19T04:28:45;159126.47;;;25.30;62.80
5350;BME280;2697;42.144;24.794;2022-08-19T04:31:16;159218.31;;;25.66;62.40
5350;BME280;2697;42.144;24.794;2022-08-19T04:33:42;159288.94;;;25.93;59.78
5350;BME280;2697;42.144;24.794;2022-08-19T04:36:08;159387.47;;;26.30;59.33
5350;BME280;2697;42.144;24.794;2022-08-19T04:38:41;159587.34;;;27.07;55.69
5350;BME280;2697;42.144;24.794;2022-08-19T04:41:06;159690.00;;;27.46;53.39
5350;BME280;2697;42.144;24.794;2022-08-19T04:43:50;159632.66;;;27.24;54.77
5350;BME280;2697;42.144;24.794;2022-08-19T04:46:16;159622.03;;;27.20;54.24
5350;BME280;2697;42.144;24.794;2022-08-19T04:48:42;159618.03;;;27.18;54.38
5350;BME280;2697;42.144;24.794;2022-08-19T04:51:10;160016.72;;;28.71;49.85
5350;BME280;2697;42.144;24.794;2022-08-19T04:53:39;160446.56;;;30.34;44.73
5350;BME280;2697;42.144;24.794;2022-08-19T04:56:12;160622.84;;;31.02;43.81
5350;BME280;2697;42.144;24.794;2022-08-19T04:58:39;160621.53;;;31.01;43.38
5350;BME280;2697;42.144;24.794;2022-08-19T05:01:06;160642.91;;;31.09;43.77
5350;BME280;2697;42.144;24.794;2022-08-19T05:03:34;160664.22;;;31.17;44.23
5350;BME280;2697;42.144;24.794;2022-08-19T05:06:07;160735.09;;;31.44;42.64
5350;BME280;2697;42.144;24.794;2022-08-19T05:08:36;160719.09;;;31.38;43.58
5350;BME280;2697;42.144;24.794;2022-08-19T05:11:16;160433.19;;;30.29;45.34
5350;BME280;2697;42.144;24.794;2022-08-19T05:13:45;160792.56;;;31.66;42.96
5350;BME280;2697;42.144;24.794;2022-08-19T05:16:12;161098.69;;;32.83;40.54
5350;BME280;2697;42.144;24.794;2022-08-19T05:18:38;161179.00;;;33.13;39.51
5350;BME280;2697;42.144;24.794;2022-08-19T05:21:22;161158.94;;;33.06;39.03
5350;BME280;2697;42.144;24.794;2022-08-19T05:24:07;161354.25;;;33.80;38.24
5350;BME280;2697;42.144;24.794;2022-08-19T05:26:38;161607.22;;;34.76;35.96
5350;BME280;2697;42.144;24.794;2022-08-19T05:29:04;161494.75;;;34.34;36.33
5350;BME280;2697;42.144;24.794;2022-08-19T05:31:30;161711.66;;;35.16;35.28
5350;BME280;2697;42.144;24.794;2022-08-19T05:33:56;161762.53;;;35.35;34.62
5350;BME280;2697;42.144;24.794;2022-08-19T05:36:24;161850.97;;;35.69;34.10
5350;BME280;2697;42.144;24.794;2022-08-19T05:38:50;161545.69;;;34.53;34.71
5350;BME280;2697;42.144;24.794;2022-08-19T05:41:18;161374.38;;;33.88;37.02
5350;BME280;2697;42.144;24.794;2022-08-19T05:43:43;161486.72;;;34.30;34.49
5350;BME280;2697;42.144;24.794;2022-08-19T05:46:16;161592.47;;;34.71;34.57
5350;BME280;2697;42.144;24.794;2022-08-19T05:48:43;161427.88;;;34.08;34.98
5350;BME280;2697;42.144;24.794;2022-08-19T05:51:08;161572.44;;;34.63;34.05
5350;BME280;2697;42.144;24.794;2022-08-19T05:53:34;161568.38;;;34.62;33.98
5350;BME280;2697;42.144;24.794;2022-08-19T05:56:08;161569.72;;;34.62;33.89
5350;BME280;2697;42.144;24.794;2022-08-19T05:58:36;161394.41;;;33.95;35.25
5350;BME280;2697;42.144;24.794;2022-08-19T06:01:02;161588.47;;;34.69;34.29
5350;BME280;2697;42.144;24.794;2022-08-19T06:03:33;161663.47;;;34.98;33.41
5350;BME280;2697;42.144;24.794;2022-08-19T06:05:59;161508.19;;;34.39;34.47
5350;BME280;2697;42.144;24.794;2022-08-19T06:08:28;161632.66;;;34.86;32.46
5350;BME280;2697;42.144;24.794;2022-08-19T06:10:54;161302.09;;;33.60;35.13
5350;BME280;2697;42.144;24.794;2022-08-19T06:13:19;161844.28;;;35.66;32.22
5350;BME280;2697;42.144;24.794;2022-08-19T06:15:45;162073.41;;;36.53;31.19
5350;BME280;2697;42.144;24.794;2022-08-19T06:18:13;162084.09;;;36.58;30.49
5350;BME280;2697;42.144;24.794;2022-08-19T06:20:39;161459.97;;;34.20;33.18
5350;BME280;2697;42.144;24.794;2022-08-19T06:23:04;161741.09;;;35.27;31.74
5350;BME280;2697;42.144;24.794;2022-08-19T06:25:30;161986.25;;;36.20;30.58
5350;BME280;2697;42.144;24.794;2022-08-19T06:27:55;162200.72;;;37.02;29.94
5350;BME280;2697;42.144;24.794;2022-08-19T06:30:21;162287.91;;;37.35;28.97
5350;BME280;2697;42.144;24.794;2022-08-19T06:32:46;162360.28;;;37.62;29.19
5350;BME280;2697;42.144;24.794;2022-08-19T06:35:11;162254.31;;;37.22;29.48
5350;BME280;2697;42.144;24.794;2022-08-19T06:37:38;161974.25;;;36.16;30.91
5350;BME280;2697;42.144;24.794;2022-08-19T06:40:04;162074.75;;;36.54;30.63
5350;BME280;2697;42.144;24.794;2022-08-19T06:42:29;162324.06;;;37.49;28.68
5350;BME280;2697;42.144;24.794;2022-08-19T06:44:55;162530.66;;;38.27;28.50
5350;BME280;2697;42.144;24.794;2022-08-19T06:47:22;162325.41;;;37.49;29.40
5350;BME280;2697;42.144;24.794;2022-08-19T06:49:47;162027.84;;;36.36;30.52
5350;BME280;2697;42.144;24.794;2022-08-19T06:52:12;162137.72;;;36.78;30.30
5350;BME280;2697;42.144;24.794;2022-08-19T06:54:40;162173.94;;;36.92;29.51
5350;BME280;2697;42.144;24.794;2022-08-19T06:57:07;161936.72;;;36.02;30.64
5350;BME280;2697;42.144;24.794;2022-08-19T06:59:34;161976.91;;;36.17;30.78
5350;BME280;2697;42.144;24.794;2022-08-19T07:02:04;162208.81;;;37.05;29.14
5350;BME280;2697;42.144;24.794;2022-08-19T07:04:34;162132.34;;;36.76;29.86
5350;BME280;2697;42.144;24.794;2022-08-19T07:07:12;162022.47;;;36.34;30.21
5350;BME280;2697;42.144;24.794;2022-08-19T07:09:40;161749.19;;;35.30;31.62
5350;BME280;2697;42.144;24.794;2022-08-19T07:12:08;161655.47;;;34.95;32.32
5350;BME280;2697;42.144;24.794;2022-08-19T07:14:35;161525.59;;;34.45;33.49
5350;BME280;2697;42.144;24.794;2022-08-19T07:17:06;161320.78;;;33.67;34.83
5350;BME280;2697;42.144;24.794;2022-08-19T07:19:32;161059.97;;;32.68;36.08
5350;BME280;2697;42.144;24.794;2022-08-19T07:22:01;160999.78;;;32.45;37.18
5350;BME280;2697;42.144;24.794;2022-08-19T07:24:27;160907.50;;;32.10;38.19
5350;BME280;2697;42.144;24.794;2022-08-19T07:26:55;160760.47;;;31.54;38.83
5350;BME280;2697;42.144;24.794;2022-08-19T07:29:22;160697.69;;;31.30;40.16
5350;BME280;2697;42.144;24.794;2022-08-19T07:31:49;160554.75;;;30.76;41.00
5350;BME280;2697;42.144;24.794;2022-08-19T07:34:15;160666.94;;;31.18;40.37
5350;BME280;2697;42.144;24.794;2022-08-19T07:36:42;160683.00;;;31.25;40.12
5350;BME280;2697;42.144;24.794;2022-08-19T07:39:20;160668.28;;;31.19;40.25
5350;BME280;2697;42.144;24.794;2022-08-19T07:41:46;160681.66;;;31.24;40.00
5350;BME280;2697;42.144;24.794;2022-08-19T07:44:13;160712.38;;;31.36;40.19
5350;BME280;2697;42.144;24.794;2022-08-19T07:46:45;160743.13;;;31.47;38.85
5350;BME280;2697;42.144;24.794;2022-08-19T07:49:11;160780.50;;;31.62;38.19
5350;BME280;2697;42.144;24.794;2022-08-19T07:51:43;160797.88;;;31.68;37.70
5350;BME280;2697;42.144;24.794;2022-08-19T07:54:09;160723.09;;;31.40;38.13
5350;BME280;2697;42.144;24.794;2022-08-19T07:56:37;160783.19;;;31.63;37.90
5350;BME280;2697;42.144;24.794;2022-08-19T07:59:02;160792.56;;;31.66;38.16
5350;BME280;2697;42.144;24.794;2022-08-19T08:01:28;160752.47;;;31.51;37.89
5350;BME280;2697;42.144;24.794;2022-08-19T08:03:55;160796.56;;;31.68;37.54
5350;BME280;2697;42.144;24.794;2022-08-19T08:06:39;160818.00;;;31.76;36.96
5350;BME280;2697;42.144;24.794;2022-08-19T08:09:29;160834.00;;;31.82;37.11
5350;BME280;2697;42.144;24.794;2022-08-19T08:12:05;160914.22;;;32.13;36.77
5350;BME280;2697;42.144;24.794;2022-08-19T08:14:46;160975.72;;;32.36;36.16
5350;BME280;2697;42.144;24.794;2022-08-19T08:17:14;160983.78;;;32.39;36.36
5350;BME280;2697;42.144;24.794;2022-08-19T08:19:41;161027.84;;;32.56;36.03
5350;BME280;2697;42.144;24.794;2022-08-19T08:22:08;160997.09;;;32.44;35.89
5350;BME280;2697;42.144;24.794;2022-08-19T08:24:53;161059.97;;;32.68;35.39
5350;BME280;2697;42.144;24.794;2022-08-19T08:27:19;161096.03;;;32.82;35.13
5350;BME280;2697;42.144;24.794;2022-08-19T08:29:45;161117.47;;;32.90;35.07
5350;BME280;2697;42.144;24.794;2022-08-19T08:32:10;161137.53;;;32.98;34.78
5350;BME280;2697;42.144;24.794;2022-08-19T08:34:35;161144.22;;;33.00;34.56
5350;BME280;2697;42.144;24.794;2022-08-19T08:37:02;161174.94;;;33.12;34.74
5350;BME280;2697;42.144;24.794;2022-08-19T08:39:28;161164.28;;;33.08;35.36
5350;BME280;2697;42.144;24.794;2022-08-19T08:44:51;161306.09;;;33.62;34.72
5350;BME280;2697;42.144;24.794;2022-08-19T08:47:17;161302.09;;;33.60;34.78
5350;BME280;2697;42.144;24.794;2022-08-19T08:49:51;161344.84;;;33.77;34.83
5350;BME280;2697;42.144;24.794;2022-08-19T08:52:24;161304.75;;;33.61;35.15
5350;BME280;2697;42.144;24.794;2022-08-19T08:54:53;161307.44;;;33.62;34.54
5350;BME280;2697;42.144;24.794;2022-08-19T08:57:27;161360.94;;;33.83;34.35
5350;BME280;2697;42.144;24.794;2022-08-19T08:59:55;161411.81;;;34.02;33.30
5350;BME280;2697;42.144;24.794;2022-08-19T09:02:22;161269.97;;;33.48;34.58
5350;BME280;2697;42.144;24.794;2022-08-19T09:04:47;161331.50;;;33.71;34.47
5350;BME280;2697;42.144;24.794;2022-08-19T09:09:50;161457.31;;;34.19;33.74
5350;BME280;2697;42.144;24.794;2022-08-19T09:15:06;161481.41;;;34.28;34.13
5350;BME280;2697;42.144;24.794;2022-08-19T09:17:33;161492.06;;;34.33;33.30
5350;BME280;2697;42.144;24.794;2022-08-19T09:20:16;161514.88;;;34.41;33.82
5350;BME280;2697;42.144;24.794;2022-08-19T09:22:43;161540.28;;;34.51;33.20
5350;BME280;2697;42.144;24.794;2022-08-19T09:25:11;161557.72;;;34.57;33.21
5350;BME280;2697;42.144;24.794;2022-08-19T09:27:39;161567.06;;;34.61;33.44
5350;BME280;2697;42.144;24.794;2022-08-19T09:30:06;161541.63;;;34.51;33.41
5350;BME280;2697;42.144;24.794;2022-08-19T09:32:33;161540.28;;;34.51;32.78
5350;BME280;2697;42.144;24.794;2022-08-19T09:34:58;161572.44;;;34.63;33.05
5350;BME280;2697;42.144;24.794;2022-08-19T09:37:25;161620.63;;;34.81;32.48
5350;BME280;2697;42.144;24.794;2022-08-19T09:39:51;161667.47;;;34.99;32.08
5350;BME280;2697;42.144;24.794;2022-08-19T09:42:18;161646.13;;;34.91;32.61
5350;BME280;2697;42.144;24.794;2022-08-19T09:44:43;161711.66;;;35.16;31.77
5350;BME280;2697;42.144;24.794;2022-08-19T09:47:10;161707.66;;;35.14;31.62
5350;BME280;2697;42.144;24.794;2022-08-19T09:49:37;161696.97;;;35.10;31.91
5350;BME280;2697;42.144;24.794;2022-08-19T09:52:04;161731.75;;;35.24;30.80
5350;BME280;2697;42.144;24.794;2022-08-19T09:54:30;161696.97;;;35.10;30.58
5350;BME280;2697;42.144;24.794;2022-08-19T09:56:58;161713.00;;;35.17;30.62
5350;BME280;2697;42.144;24.794;2022-08-19T09:59:25;161707.66;;;35.14;29.97
5350;BME280;2697;42.144;24.794;2022-08-19T10:01:51;161609.91;;;34.77;30.59
5350;BME280;2697;42.144;24.794;2022-08-19T10:04:16;161631.31;;;34.85;31.17
5350;BME280;2697;42.144;24.794;2022-08-19T10:06:42;161652.78;;;34.94;30.93
5350;BME280;2697;42.144;24.794;2022-08-19T10:09:09;161671.53;;;35.01;30.23
5350;BME280;2697;42.144;24.794;2022-08-19T10:11:35;161644.78;;;34.91;30.88
5350;BME280;2697;42.144;24.794;2022-08-19T10:14:03;161682.22;;;35.05;30.81
5350;BME280;2697;42.144;24.794;2022-08-19T10:16:31;161737.09;;;35.26;30.59
5350;BME280;2697;42.144;24.794;2022-08-19T10:18:56;161757.19;;;35.33;29.90
5350;BME280;2697;42.144;24.794;2022-08-19T10:21:27;161765.22;;;35.36;30.63
5350;BME280;2697;42.144;24.794;2022-08-19T10:23:55;161745.16;;;35.29;30.38
5350;BME280;2697;42.144;24.794;2022-08-19T10:26:27;161729.09;;;35.23;30.21
5350;BME280;2697;42.144;24.794;2022-08-19T10:28:53;161714.34;;;35.17;29.71
5350;BME280;2697;42.144;24.794;2022-08-19T10:31:22;161713.00;;;35.17;29.68
5350;BME280;2697;42.144;24.794;2022-08-19T10:33:49;161759.88;;;35.34;30.15
5350;BME280;2697;42.144;24.794;2022-08-19T10:36:18;161822.88;;;35.58;29.29
5350;BME280;2697;42.144;24.794;2022-08-19T10:38:46;161850.97;;;35.69;29.39
5350;BME280;2697;42.144;24.794;2022-08-19T10:41:17;161891.16;;;35.84;29.34
5350;BME280;2697;42.144;24.794;2022-08-19T10:43:43;161943.44;;;36.04;29.41
5350;BME280;2697;42.144;24.794;2022-08-19T10:46:13;161980.91;;;36.18;28.86
5350;BME280;2697;42.144;24.794;2022-08-19T10:48:39;161956.81;;;36.09;28.67
5350;BME280;2697;42.144;24.794;2022-08-19T10:51:05;161923.34;;;35.96;28.79
5350;BME280;2697;42.144;24.794;2022-08-19T10:53:50;161876.41;;;35.79;28.87
5350;BME280;2697;42.144;24.794;2022-08-19T10:56:16;161905.91;;;35.90;28.78
5350;BME280;2697;42.144;24.794;2022-08-19T10:59:00;161904.59;;;35.89;28.12
5350;BME280;2697;42.144;24.794;2022-08-19T11:01:27;161939.44;;;36.03;28.12
5350;BME280;2697;42.144;24.794;2022-08-19T11:03:55;161990.31;;;36.22;27.86
5350;BME280;2697;42.144;24.794;2022-08-19T11:06:21;162060.03;;;36.48;28.02
5350;BME280;2697;42.144;24.794;2022-08-19T11:08:47;161979.59;;;36.18;27.54
5350;BME280;2697;42.144;24.794;2022-08-19T11:11:12;161904.59;;;35.89;28.14
5350;BME280;2697;42.144;24.794;2022-08-19T11:13:40;161868.41;;;35.76;28.41
5350;BME280;2697;42.144;24.794;2022-08-19T11:16:13;161853.66;;;35.70;28.32
5350;BME280;2697;42.144;24.794;2022-08-19T11:18:43;161864.41;;;35.74;27.21
5350;BME280;2697;42.144;24.794;2022-08-19T11:21:14;161892.50;;;35.85;27.68
5350;BME280;2697;42.144;24.794;2022-08-19T11:23:42;161893.84;;;35.85;28.58
5350;BME280;2697;42.144;24.794;2022-08-19T11:26:08;161950.13;;;36.07;27.74
5350;BME280;2697;42.144;24.794;2022-08-19T11:28:34;162022.47;;;36.34;27.60
5350;BME280;2697;42.144;24.794;2022-08-19T11:30:59;162068.06;;;36.51;27.13
5350;BME280;2697;42.144;24.794;2022-08-19T11:33:24;162070.75;;;36.52;27.60
5350;BME280;2697;42.144;24.794;2022-08-19T11:35:52;162113.63;;;36.69;26.72
5350;BME280;2697;42.144;24.794;2022-08-19T11:38:17;162080.09;;;36.56;27.11
5350;BME280;2697;42.144;24.794;2022-08-19T11:40:43;162025.19;;;36.35;27.17
5350;BME280;2697;42.144;24.794;2022-08-19T11:43:09;161952.81;;;36.08;27.63
5350;BME280;2697;42.144;24.794;2022-08-19T11:45:35;161901.91;;;35.88;28.24
5350;BME280;2697;42.144;24.794;2022-08-19T11:48:01;161947.47;;;36.06;28.23
5350;BME280;2697;42.144;24.794;2022-08-19T11:50:27;161997.00;;;36.24;27.28
5350;BME280;2697;42.144;24.794;2022-08-19T11:52:56;161997.00;;;36.24;27.57
5350;BME280;2697;42.144;24.794;2022-08-19T11:55:22;162022.47;;;36.34;27.36
5350;BME280;2697;42.144;24.794;2022-08-19T11:57:48;162025.19;;;36.35;27.75
5350;BME280;2697;42.144;24.794;2022-08-19T12:00:14;162076.09;;;36.54;27.58
5350;BME280;2697;42.144;24.794;2022-08-19T12:02:40;162113.63;;;36.69;27.41
5350;BME280;2697;42.144;24.794;2022-08-19T12:05:06;162073.41;;;36.53;27.49
5350;BME280;2697;42.144;24.794;2022-08-19T12:07:32;162086.81;;;36.59;27.18
5350;BME280;2697;42.144;24.794;2022-08-19T12:09:59;162049.28;;;36.44;27.17
5350;BME280;2697;42.144;24.794;2022-08-19T12:12:26;162076.09;;;36.54;27.95
5350;BME280;2697;42.144;24.794;2022-08-19T12:14:52;162127.00;;;36.74;27.12
5350;BME280;2697;42.144;24.794;2022-08-19T12:17:25;162139.06;;;36.78;26.79
5350;BME280;2697;42.144;24.794;2022-08-19T12:19:51;162149.78;;;36.82;26.80
5350;BME280;2697;42.144;24.794;2022-08-19T12:22:17;162153.84;;;36.84;27.25
5350;BME280;2697;42.144;24.794;2022-08-19T12:24:42;162168.59;;;36.90;26.20
5350;BME280;2697;42.144;24.794;2022-08-19T12:27:08;162194.03;;;36.99;26.51
5350;BME280;2697;42.144;24.794;2022-08-19T12:29:33;162279.84;;;37.32;26.27
5350;BME280;2697;42.144;24.794;2022-08-19T12:31:59;162291.94;;;37.36;25.98
5350;BME280;2697;42.144;24.794;2022-08-19T12:34:27;162287.91;;;37.35;26.54
5350;BME280;2697;42.144;24.794;2022-08-19T12:36:56;162303.97;;;37.41;26.48
5350;BME280;2697;42.144;24.794;2022-08-19T12:39:22;162389.78;;;37.74;25.69
5350;BME280;2697;42.144;24.794;2022-08-19T12:41:48;162411.28;;;37.82;25.97
5350;BME280;2697;42.144;24.794;2022-08-19T12:44:14;162371.00;;;37.66;25.77
5350;BME280;2697;42.144;24.794;2022-08-19T12:46:40;162341.50;;;37.55;26.04
5350;BME280;2697;42.144;24.794;2022-08-19T12:49:05;162336.16;;;37.53;26.51
5350;BME280;2697;42.144;24.794;2022-08-19T12:51:30;162389.78;;;37.74;25.96
5350;BME280;2697;42.144;24.794;2022-08-19T12:53:56;162389.78;;;37.74;25.80
5350;BME280;2697;42.144;24.794;2022-08-19T12:56:22;162427.34;;;37.88;25.20
5350;BME280;2697;42.144;24.794;2022-08-19T12:58:47;162350.88;;;37.59;25.97
5350;BME280;2697;42.144;24.794;2022-08-19T13:01:15;162397.84;;;37.77;25.58
5350;BME280;2697;42.144;24.794;2022-08-19T13:03:41;162372.34;;;37.67;26.34
5350;BME280;2697;42.144;24.794;2022-08-19T13:06:09;162376.34;;;37.69;26.27
5350;BME280;2697;42.144;24.794;2022-08-19T13:08:35;162349.53;;;37.58;25.74
5350;BME280;2697;42.144;24.794;2022-08-19T13:11:29;162412.63;;;37.82;25.33
5350;BME280;2697;42.144;24.794;2022-08-19T13:14:00;162372.34;;;37.67;25.71